Time;durP1;ratioP1;P1;durP2;ratioP2;P2;SDS_P1;SDS_P2;PMS_P1;PMS_P2;Temp;Humidity;BMP_temperature;BMP_pressure;BME280_temperature;BME280_humidity;BME280_pressure;Samples;Min_cycle;Max_cycle;Signal;HPM_P1;HPM_P2
2021/03/19 00:02:23;;;;;;;;;;;3.60;99.90;;;;;;5079097;28;19951;-80
2021/03/19 00:04:49;;;;;;;;;;;3.50;99.90;;;;;;5079722;28;19904;-79
2021/03/19 00:07:14;;;;;;;;;;;3.40;99.90;;;;;;5079560;28;19904;-79
2021/03/19 00:09:40;;;;;;;;;;;3.40;99.90;;;;;;5079300;28;19905;-80
2021/03/19 00:12:06;;;;;;;;;;;3.40;99.90;;;;;;5079545;28;19912;-79
2021/03/19 00:14:31;;;;;;;;;;;3.50;99.90;;;;;;5079097;28;19916;-79
2021/03/19 00:16:57;;;;;;;;;;;3.60;99.90;;;;;;5078439;28;19915;-80
2021/03/19 00:19:22;;;;;;;;;;;3.60;99.90;;;;;;5077433;28;19952;-78
2021/03/19 00:21:47;;;;;;;;;;;3.40;99.90;;;;;;5076669;28;19937;-78
2021/03/19 00:24:13;;;;;;;;;;;3.40;99.90;;;;;;5077510;28;20282;-78
2021/03/19 00:26:39;;;;;;;;;;;3.40;99.90;;;;;;5078398;28;19904;-78
2021/03/19 00:29:04;;;;;;;;;;;3.50;99.90;;;;;;5078007;28;19908;-77
2021/03/19 00:31:30;;;;;;;;;;;3.40;99.90;;;;;;5076488;28;19912;-78
2021/03/19 00:33:55;;;;;;;;;;;3.40;99.90;;;;;;5076544;28;19911;-78
2021/03/19 00:36:21;;;;;;;;;;;3.40;99.90;;;;;;5077452;28;19912;-77
2021/03/19 00:38:46;;;;;;;;;;;3.40;99.90;;;;;;5076462;28;20556;-79
2021/03/19 00:41:12;;;;;;;;;;;3.40;99.90;;;;;;5076894;28;19908;-78
2021/03/19 00:43:37;;;;;;;;;;;3.40;99.90;;;;;;5076047;28;19905;-78
2021/03/19 00:46:03;;;;;;;;;;;3.40;99.90;;;;;;5076338;28;19910;-82
2021/03/19 00:48:28;;;;;;;;;;;3.40;99.90;;;;;;5076003;28;19904;-80
2021/03/19 00:50:55;;;;;;;;;;;3.40;99.90;;;;;;5076978;28;19953;-78
2021/03/19 00:53:20;;;;;;;;;;;3.40;99.90;;;;;;5077337;28;19904;-79
2021/03/19 00:55:46;;;;;;;;;;;3.40;99.90;;;;;;5078575;28;19915;-79
2021/03/19 00:58:11;;;;;;;;;;;3.40;99.90;;;;;;5077401;28;19904;-79
2021/03/19 01:00:37;;;;;;;;;;;3.50;99.90;;;;;;5077209;28;19911;-79
2021/03/19 01:03:03;;;;;;;;;;;3.40;99.90;;;;;;5078853;28;19904;-78
2021/03/19 01:05:34;;;;;;;;;;;3.30;99.90;;;;;;5076362;28;19911;-79
2021/03/19 01:08:00;;;;;;;;;;;3.30;99.90;;;;;;5076700;28;19904;-78
2021/03/19 01:10:27;;;;;;;;;;;3.30;99.90;;;;;;5078298;28;19916;-79
2021/03/19 01:12:52;;;;;;;;;;;3.30;99.90;;;;;;5077442;28;19927;-79
2021/03/19 01:15:18;;;;;;;;;;;3.30;99.90;;;;;;5078694;28;20359;-81
2021/03/19 01:17:44;;;;;;;;;;;3.20;99.90;;;;;;5078985;28;19909;-78
2021/03/19 01:20:11;;;;;;;;;;;3.20;99.90;;;;;;5075968;28;19999;-78
2021/03/19 01:22:36;;;;;;;;;;;3.20;99.90;;;;;;5076033;28;19911;-77
2021/03/19 01:25:04;;;;;;;;;;;3.10;99.90;;;;;;5076550;28;19905;-77
2021/03/19 01:27:30;;;;;;;;;;;3.10;99.90;;;;;;5077163;28;19912;-78
2021/03/19 01:29:55;;;;;;;;;;;3.10;99.90;;;;;;5075404;28;19904;-80
2021/03/19 01:32:21;;;;;;;;;;;3.10;99.90;;;;;;5075724;28;19916;-78
2021/03/19 01:34:46;;;;;;;;;;;3.10;99.90;;;;;;5076722;28;19948;-77
2021/03/19 01:37:12;;;;;;;;;;;3.20;99.90;;;;;;5077227;28;20190;-77
2021/03/19 01:39:37;;;;;;;;;;;3.20;99.90;;;;;;5075889;28;20341;-77
2021/03/19 01:42:03;;;;;;;;;;;3.20;99.90;;;;;;5077205;28;19904;-77
2021/03/19 01:45:07;;;;;;;;;;;3.20;99.90;;;;;;5076087;28;19904;-78
2021/03/19 01:47:51;;;;;;;;;;;3.10;99.90;;;;;;5014768;28;19924;-77
2021/03/19 01:50:35;;;;;;;;;;;3.10;99.90;;;;;;4998097;28;19906;-78
2021/03/19 01:53:20;;;;;;;;;;;3.10;99.90;;;;;;5052309;28;19908;-77
2021/03/19 01:56:04;;;;;;;;;;;3.10;99.90;;;;;;5074851;28;19908;-78
2021/03/19 01:58:48;;;;;;;;;;;3.10;99.90;;;;;;5075282;28;19928;-77
2021/03/19 02:01:33;;;;;;;;;;;3.10;99.90;;;;;;5075820;28;19905;-77
2021/03/19 02:04:17;;;;;;;;;;;3.10;99.90;;;;;;5075666;28;19911;-78
2021/03/19 02:07:01;;;;;;;;;;;3.10;99.90;;;;;;5075295;28;19908;-79
2021/03/19 02:09:45;;;;;;;;;;;3.10;99.90;;;;;;5075667;28;19994;-78
2021/03/19 02:12:30;;;;;;;;;;;3.20;99.90;;;;;;5075478;28;19908;-78
2021/03/19 02:15:14;;;;;;;;;;;3.10;99.90;;;;;;5074846;28;19911;-77
2021/03/19 02:17:58;;;;;;;;;;;3.10;99.90;;;;;;5076682;28;19909;-77
2021/03/19 02:20:43;;;;;;;;;;;3.10;99.90;;;;;;5078569;28;20007;-78
2021/03/19 02:23:27;;;;;;;;;;;3.00;99.90;;;;;;5078433;28;20325;-78
2021/03/19 02:26:11;;;;;;;;;;;3.10;99.90;;;;;;5080264;28;19905;-79
2021/03/19 02:28:55;;;;;;;;;;;3.00;99.90;;;;;;5080274;28;19904;-77
2021/03/19 02:31:43;;;;;;;;;;;3.00;99.90;;;;;;5078617;28;19908;-77
2021/03/19 02:34:09;;;;;;;;;;;3.00;99.90;;;;;;5078335;28;19908;-78
2021/03/19 02:36:34;;;;;;;;;;;3.00;99.90;;;;;;5079213;28;19908;-78
2021/03/19 02:38:59;;;;;;;;;;;3.00;99.90;;;;;;5079233;28;19924;-78
2021/03/19 02:41:25;;;;;;;;;;;3.10;99.90;;;;;;5080234;28;19940;-80
2021/03/19 02:43:50;;;;;;;;;;;3.10;99.90;;;;;;5078859;28;19916;-78
2021/03/19 02:46:16;;;;;;;;;;;3.10;99.90;;;;;;5078760;28;19905;-77
2021/03/19 02:48:41;;;;;;;;;;;3.10;99.90;;;;;;5078314;28;20371;-79
2021/03/19 02:51:07;;;;;;;;;;;3.10;99.90;;;;;;5078517;28;19912;-78
2021/03/19 02:53:34;;;;;;;;;;;3.00;99.90;;;;;;5078749;28;20263;-78
2021/03/19 02:56:01;;;;;;;;;;;3.10;99.90;;;;;;5079768;28;20367;-79
2021/03/19 02:58:27;;;;;;;;;;;3.10;99.90;;;;;;5078614;28;19999;-78
2021/03/19 03:00:52;;;;;;;;;;;3.00;99.90;;;;;;5078690;28;20347;-79
2021/03/19 03:03:18;;;;;;;;;;;3.00;99.90;;;;;;5079841;28;19904;-78
2021/03/19 03:05:44;;;;;;;;;;;3.10;99.90;;;;;;5079057;28;19926;-79
2021/03/19 03:08:13;;;;;;;;;;;3.20;99.90;;;;;;5077681;28;19910;-79
2021/03/19 03:10:38;;;;;;;;;;;3.20;99.90;;;;;;5079050;28;19904;-78
2021/03/19 03:13:04;;;;;;;;;;;3.20;99.90;;;;;;5079402;28;19911;-78
2021/03/19 03:15:30;;;;;;;;;;;3.30;99.90;;;;;;5079557;28;19909;-79
2021/03/19 03:17:55;;;;;;;;;;;3.20;99.90;;;;;;5077610;28;19911;-76
2021/03/19 03:20:25;;;;;;;;;;;3.20;99.90;;;;;;5079254;28;19970;-78
2021/03/19 03:22:51;;;;;;;;;;;3.20;99.90;;;;;;5077352;28;19908;-79
2021/03/19 03:25:19;;;;;;;;;;;3.20;99.90;;;;;;5077155;28;20390;-77
2021/03/19 03:27:45;;;;;;;;;;;3.20;99.90;;;;;;5077574;28;19905;-81
2021/03/19 03:30:14;;;;;;;;;;;3.20;99.90;;;;;;5078844;28;19938;-79
2021/03/19 03:32:39;;;;;;;;;;;3.20;99.90;;;;;;5078674;28;19970;-79
2021/03/19 03:35:05;;;;;;;;;;;3.20;99.90;;;;;;5078479;28;19904;-78
2021/03/19 03:37:31;;;;;;;;;;;3.20;99.90;;;;;;5078342;28;19913;-78
2021/03/19 03:39:57;;;;;;;;;;;3.20;99.90;;;;;;5078353;28;19908;-79
2021/03/19 03:42:22;;;;;;;;;;;3.20;99.90;;;;;;5078503;28;20271;-79
2021/03/19 03:44:48;;;;;;;;;;;3.20;99.90;;;;;;5078972;28;19952;-78
2021/03/19 03:47:13;;;;;;;;;;;3.20;99.90;;;;;;5079173;28;19904;-79
2021/03/19 03:49:38;;;;;;;;;;;3.20;99.90;;;;;;5078281;28;19912;-78
2021/03/19 03:52:04;;;;;;;;;;;3.20;99.90;;;;;;5077295;28;19926;-77
2021/03/19 03:54:31;;;;;;;;;;;3.20;99.90;;;;;;5076732;28;19904;-79
2021/03/19 03:56:56;;;;;;;;;;;3.20;99.90;;;;;;5077087;28;20336;-78
2021/03/19 03:59:21;;;;;;;;;;;3.10;99.90;;;;;;5076269;28;19975;-78
2021/03/19 04:01:48;;;;;;;;;;;3.20;99.90;;;;;;5076767;28;19911;-78
2021/03/19 04:04:16;;;;;;;;;;;3.10;99.90;;;;;;5076931;28;19926;-79
2021/03/19 04:06:41;;;;;;;;;;;3.00;99.90;;;;;;5077071;28;19908;-79
2021/03/19 04:09:07;;;;;;;;;;;3.10;99.90;;;;;;5076848;28;20370;-77
2021/03/19 04:11:32;;;;;;;;;;;3.00;99.90;;;;;;5076393;28;19904;-79
2021/03/19 04:13:58;;;;;;;;;;;3.10;99.90;;;;;;5077471;28;20131;-77
2021/03/19 04:16:23;;;;;;;;;;;3.30;99.90;;;;;;5079116;28;19926;-79
2021/03/19 04:18:49;;;;;;;;;;;3.30;99.90;;;;;;5077311;28;19911;-80
2021/03/19 04:21:14;;;;;;;;;;;3.30;99.90;;;;;;5078861;28;19904;-80
2021/03/19 04:23:41;;;;;;;;;;;3.10;99.90;;;;;;5065348;28;19932;-79
2021/03/19 04:26:11;;;;;;;;;;;3.20;99.90;;;;;;5063765;28;20203;-78
2021/03/19 04:28:37;;;;;;;;;;;3.20;99.90;;;;;;5064975;28;19917;-78
2021/03/19 04:31:03;;;;;;;;;;;3.30;99.90;;;;;;5066364;28;19908;-79
2021/03/19 04:33:29;;;;;;;;;;;3.20;99.90;;;;;;5063831;28;19913;-79
2021/03/19 04:36:15;;;;;;;;;;;3.30;99.90;;;;;;5056775;28;20276;-78
2021/03/19 04:38:41;;;;;;;;;;;3.30;99.90;;;;;;5042287;28;19905;-78
2021/03/19 04:41:08;;;;;;;;;;;3.30;99.90;;;;;;5056477;28;20364;-79
2021/03/19 04:43:34;;;;;;;;;;;3.30;99.90;;;;;;5057735;28;19908;-79
2021/03/19 04:45:59;;;;;;;;;;;3.20;99.90;;;;;;5056206;28;20398;-79
2021/03/19 04:48:25;;;;;;;;;;;3.20;99.90;;;;;;5057623;28;19904;-78
2021/03/19 04:50:50;;;;;;;;;;;3.10;99.90;;;;;;5057522;28;20004;-79
2021/03/19 04:53:16;;;;;;;;;;;3.20;99.90;;;;;;5057563;28;19904;-78
2021/03/19 04:55:41;;;;;;;;;;;3.20;99.90;;;;;;5055367;28;20372;-78
2021/03/19 04:58:07;;;;;;;;;;;3.40;99.90;;;;;;5058047;28;20342;-77
2021/03/19 05:00:32;;;;;;;;;;;3.40;99.90;;;;;;5057042;28;19959;-78
2021/03/19 05:02:58;;;;;;;;;;;3.30;99.90;;;;;;5056291;28;19905;-78
2021/03/19 05:05:25;;;;;;;;;;;3.30;99.90;;;;;;5055993;28;20008;-78
2021/03/19 05:07:50;;;;;;;;;;;3.30;99.90;;;;;;5055716;28;19954;-77
2021/03/19 05:10:17;;;;;;;;;;;3.30;99.90;;;;;;5055708;28;20003;-78
2021/03/19 05:12:43;;;;;;;;;;;3.30;99.90;;;;;;5057204;28;19905;-82
2021/03/19 05:15:09;;;;;;;;;;;3.20;99.90;;;;;;5055343;28;19911;-77
2021/03/19 05:17:34;;;;;;;;;;;3.30;99.90;;;;;;5056993;28;20360;-79
2021/03/19 05:20:01;;;;;;;;;;;3.30;99.90;;;;;;5056892;28;20401;-78
2021/03/19 05:22:26;;;;;;;;;;;3.30;99.90;;;;;;5057173;28;20335;-78
2021/03/19 05:24:53;;;;;;;;;;;3.30;99.90;;;;;;5056467;28;19936;-79
2021/03/19 05:27:18;;;;;;;;;;;3.30;99.90;;;;;;5055413;28;20500;-77
2021/03/19 05:29:44;;;;;;;;;;;3.30;99.90;;;;;;5055668;28;19905;-78
2021/03/19 05:32:10;;;;;;;;;;;3.30;99.90;;;;;;5057332;28;19913;-79
2021/03/19 05:34:35;;;;;;;;;;;3.30;99.90;;;;;;5057331;28;19905;-79
2021/03/19 05:37:01;;;;;;;;;;;3.30;99.90;;;;;;5057591;28;19912;-78
2021/03/19 05:39:27;;;;;;;;;;;3.40;99.90;;;;;;5056447;28;19909;-77
2021/03/19 05:41:52;;;;;;;;;;;3.30;99.90;;;;;;5057150;28;19905;-78
2021/03/19 05:44:19;;;;;;;;;;;3.40;99.90;;;;;;5055898;28;19904;-79
2021/03/19 05:46:46;;;;;;;;;;;3.20;99.90;;;;;;5056493;28;19968;-77
2021/03/19 05:49:15;;;;;;;;;;;3.10;99.90;;;;;;5054747;28;20383;-78
2021/03/19 05:51:49;;;;;;;;;;;3.10;99.90;;;;;;5055242;28;19935;-78
2021/03/19 05:54:20;;;;;;;;;;;3.20;99.90;;;;;;5057737;28;19905;-79
2021/03/19 05:56:46;;;;;;;;;;;3.20;99.90;;;;;;5058791;28;19908;-78
2021/03/19 05:59:12;;;;;;;;;;;3.20;99.90;;;;;;5058285;28;20022;-78
2021/03/19 06:01:38;;;;;;;;;;;3.20;99.90;;;;;;5058765;28;19948;-78
2021/03/19 06:04:05;;;;;;;;;;;3.20;99.90;;;;;;5060202;28;20421;-79
2021/03/19 06:06:49;;;;;;;;;;;3.00;99.90;;;;;;5060498;28;20004;-78
2021/03/19 06:09:26;;;;;;;;;;;3.20;99.90;;;;;;5060402;28;20382;-80
2021/03/19 06:11:53;;;;;;;;;;;3.10;99.90;;;;;;5059916;28;19958;-79
2021/03/19 06:14:19;;;;;;;;;;;3.20;99.90;;;;;;5058412;28;19964;-79
2021/03/19 06:16:48;;;;;;;;;;;3.30;99.90;;;;;;5059481;28;19952;-77
2021/03/19 06:19:35;;;;;;;;;;;3.30;99.90;;;;;;5075081;28;19962;-78
2021/03/19 06:22:18;;;;;;;;;;;3.20;99.90;;;;;;5078209;28;19927;-80
2021/03/19 06:24:50;;;;;;;;;;;3.20;99.90;;;;;;5075063;28;19976;-79
2021/03/19 06:27:21;;;;;;;;;;;3.20;99.90;;;;;;5078545;28;19911;-79
2021/03/19 06:29:52;;;;;;;;;;;3.20;99.90;;;;;;5078260;28;19904;-78
2021/03/19 06:32:20;;;;;;;;;;;3.30;99.90;;;;;;5078582;28;19912;-78
2021/03/19 06:35:01;;;;;;;;;;;3.30;99.90;;;;;;5079362;28;19987;-77
2021/03/19 06:37:35;;;;;;;;;;;3.30;99.90;;;;;;5078797;28;19916;-79
2021/03/19 06:40:06;;;;;;;;;;;3.40;99.90;;;;;;5080282;28;20445;-79
2021/03/19 06:42:33;;;;;;;;;;;3.30;99.90;;;;;;5077950;28;19995;-78
2021/03/19 06:45:18;;;;;;;;;;;3.30;99.90;;;;;;5068965;28;20387;-78
2021/03/19 06:47:49;;;;;;;;;;;3.30;99.90;;;;;;5058457;28;19905;-78
2021/03/19 06:50:23;;;;;;;;;;;3.20;99.90;;;;;;5058639;28;19904;-79
2021/03/19 06:53:11;;;;;;;;;;;3.30;99.90;;;;;;5057911;28;19912;-79
2021/03/19 06:55:45;;;;;;;;;;;3.30;99.90;;;;;;5058392;28;19909;-79
2021/03/19 06:58:10;;;;;;;;;;;3.40;99.90;;;;;;5063773;28;19908;-79
2021/03/19 07:00:46;;;;;;;;;;;3.50;99.90;;;;;;5067058;28;19908;-79
2021/03/19 07:03:35;;;;;;;;;;;3.60;99.90;;;;;;5072022;28;19905;-77
2021/03/19 07:06:07;;;;;;;;;;;3.50;99.90;;;;;;5077542;28;19950;-78
2021/03/19 07:08:37;;;;;;;;;;;3.70;99.90;;;;;;5077096;28;19904;-78
2021/03/19 07:11:21;;;;;;;;;;;3.80;99.90;;;;;;5077186;28;19908;-78
2021/03/19 07:13:50;;;;;;;;;;;4.10;99.90;;;;;;5071760;28;19927;-78
2021/03/19 07:16:26;;;;;;;;;;;4.50;99.90;;;;;;5062288;28;19959;-77
2021/03/19 07:18:51;;;;;;;;;;;5.10;99.90;;;;;;5054474;28;20345;-78
2021/03/19 07:21:29;;;;;;;;;;;6.10;99.90;;;;;;5054612;28;19940;-78
2021/03/19 07:24:25;;;;;;;23.20;10.38;;;6.50;99.90;;;;;;5056814;28;19904;-81
2021/03/19 07:27:06;;;;;;;21.73;9.23;;;6.80;99.90;;;;;;5061806;28;20030;-78
2021/03/19 07:29:51;;;;;;;20.70;9.18;;;7.00;99.90;;;;;;5056634;28;20033;-80
2021/03/19 07:32:48;;;;;;;20.92;10.32;;;6.90;99.90;;;;;;5073290;28;20034;-79
2021/03/19 07:35:16;;;;;;;;;;;5.80;99.90;;;;;;5057165;28;20108;-79
2021/03/19 07:37:51;;;;;;;22.63;8.38;;;5.20;99.90;;;;;;5076847;28;19920;-80
2021/03/19 07:40:37;;;;;;;20.23;8.88;;;4.90;99.90;;;;;;5076061;28;20031;-78
2021/03/19 07:43:18;;;;;;;19.38;8.75;;;4.90;99.90;;;;;;5078506;28;20024;-80
2021/03/19 07:45:46;;;;;;;;;;;5.20;99.90;;;;;;5076365;28;20074;-78
2021/03/19 07:48:22;;;;;;;15.88;8.85;;;6.70;99.90;;;;;;5072426;28;19908;-79
2021/03/19 07:51:05;;;;;;;17.83;8.70;;;7.50;99.90;;;;;;5056549;28;20035;-79
2021/03/19 07:54:07;;;;;;;16.60;7.55;;;6.90;99.90;;;;;;5070285;28;20044;-81
2021/03/19 07:56:35;;;;;;;17.60;9.30;;;6.00;99.90;;;;;;5066916;28;20032;-79
2021/03/19 07:59:14;;;;;;;;;;;6.20;99.90;;;;;;5064059;28;19944;-79
2021/03/19 08:02:18;;;;;;;16.58;8.93;;;7.40;99.90;;;;;;5062969;28;19912;-79
2021/03/19 08:05:29;;;;;;;16.25;7.22;;;10.20;99.90;;;;;;5066941;28;20020;-79
2021/03/19 08:08:08;;;;;;;13.90;7.50;;;11.60;99.90;;;;;;5066515;28;20024;-78
2021/03/19 08:11:03;;;;;;;13.55;6.70;;;10.50;99.90;;;;;;5077533;28;20025;-79
2021/03/19 08:14:00;;;;;;;14.80;6.65;;;8.00;99.90;;;;;;5048151;28;20028;-78
2021/03/19 08:16:51;;;;;;;15.93;7.20;;;6.80;99.90;;;;;;5072172;28;20056;-78
2021/03/19 08:19:38;;;;;;;14.95;6.75;;;5.70;99.90;;;;;;5073065;28;20494;-77
2021/03/19 08:22:21;;;;;;;;;;;5.20;99.90;;;;;;5073926;28;20033;-78
2021/03/19 08:24:56;;;;;;;;;;;4.90;99.90;;;;;;5065961;28;19908;-78
2021/03/19 08:27:35;;;;;;;;;;;4.80;99.90;;;;;;5054145;28;19908;-78
2021/03/19 08:30:20;;;;;;;;;;;4.40;99.90;;;;;;5073132;28;19944;-79
2021/03/19 08:33:04;;;;;;;;;;;4.40;99.90;;;;;;5070900;28;19916;-79
2021/03/19 08:35:58;;;;;;;13.30;7.00;;;4.30;99.90;;;;;;5073378;28;19909;-80
2021/03/19 08:38:43;;;;;;;20.23;7.38;;;4.20;99.90;;;;;;5073163;28;20020;-80
2021/03/19 08:41:27;;;;;;;13.80;6.47;;;4.10;99.90;;;;;;5072970;28;20032;-78
2021/03/19 08:44:01;;;;;;;15.13;6.88;;;4.20;99.90;;;;;;5071818;28;20046;-77
2021/03/19 08:46:44;;;;;;;15.50;6.97;;;4.10;99.90;;;;;;5073788;28;20479;-77
2021/03/19 08:49:24;;;;;;;11.43;6.30;;;4.30;99.90;;;;;;5073491;28;20032;-77
2021/03/19 08:51:50;;;;;;;16.60;7.22;;;4.20;99.90;;;;;;5074552;28;20025;-77
2021/03/19 08:54:20;;;;;;;16.73;7.45;;;3.90;99.90;;;;;;5072707;28;20084;-80
2021/03/19 08:56:51;;;;;;;16.70;6.53;;;3.90;99.90;;;;;;5073882;28;20064;-81
2021/03/19 08:59:36;;;;;;;17.33;6.13;;;4.10;99.90;;;;;;5064938;28;20450;-79
2021/03/19 09:02:09;;;;;;;16.00;6.40;;;4.20;99.90;;;;;;5067570;28;20119;-77
2021/03/19 09:04:53;;;;;;;12.35;5.72;;;4.30;99.90;;;;;;5068685;28;20513;-77
2021/03/19 09:07:37;;;;;;;15.68;6.63;;;4.30;99.90;;;;;;5074503;28;20035;-78
2021/03/19 09:10:18;;;;;;;11.90;6.13;;;4.50;99.90;;;;;;5066767;28;20039;-76
2021/03/19 09:12:56;;;;;;;17.00;5.85;;;4.70;99.90;;;;;;5071826;28;20030;-78
2021/03/19 09:15:22;;;;;;;16.10;5.82;;;4.50;99.90;;;;;;5052574;28;20036;-78
2021/03/19 09:17:51;;;;;;;14.85;6.70;;;4.50;99.90;;;;;;5052754;28;20025;-79
2021/03/19 09:20:23;;;;;;;11.40;6.72;;;4.60;99.90;;;;;;5070600;28;20074;-77
2021/03/19 09:23:02;;;;;;;14.23;6.32;;;4.60;99.90;;;;;;5073071;28;20438;-79
2021/03/19 09:25:56;;;;;;;12.63;6.70;;;4.60;99.90;;;;;;5073862;28;20040;-77
2021/03/19 09:28:47;;;;;;;11.43;5.50;;;4.60;99.90;;;;;;5071602;28;20124;-78
2021/03/19 09:31:34;;;;;;;13.00;5.43;;;4.60;99.90;;;;;;5056255;28;20021;-77
2021/03/19 09:34:05;;;;;;;;;;;4.80;99.90;;;;;;5055868;28;20111;-77
2021/03/19 09:36:49;;;;;;;10.63;4.45;;;5.30;99.90;;;;;;5060239;28;20434;-76
2021/03/19 09:39:45;;;;;;;13.88;6.07;;;5.40;99.90;;;;;;5077498;28;20044;-78
2021/03/19 09:42:22;;;;;;;9.17;4.63;;;5.30;99.90;;;;;;5077007;28;20373;-78
2021/03/19 09:44:49;;;;;;;8.27;4.40;;;5.50;99.90;;;;;;5077636;28;20041;-77
2021/03/19 09:47:17;;;;;;;7.95;4.85;;;5.80;99.90;;;;;;5076427;28;20502;-77
2021/03/19 09:49:43;;;;;;;;;;;5.60;99.90;;;;;;5077038;28;20032;-77
2021/03/19 09:52:11;;;;;;;;;;;5.40;99.90;;;;;;5078057;28;19958;-80
2021/03/19 09:54:37;;;;;;;;;;;5.20;99.90;;;;;;5073723;28;19944;-77
2021/03/19 09:57:05;;;;;;;;;;;5.00;99.90;;;;;;5056581;28;19932;-78
2021/03/19 09:59:35;;;;;;;;;;;4.70;99.90;;;;;;5054815;28;19905;-77
2021/03/19 10:02:01;;;;;;;;;;;4.80;99.90;;;;;;5054873;28;19904;-78
2021/03/19 10:04:37;;;;;;;;;;;4.80;99.90;;;;;;5062214;28;19926;-77
2021/03/19 10:07:22;;;;;;;;;;;4.90;99.90;;;;;;5074126;28;20321;-80
2021/03/19 10:09:55;;;;;;;;;;;4.80;99.90;;;;;;5055380;28;19904;-79
2021/03/19 10:12:29;;;;;;;;;;;5.00;99.90;;;;;;5059007;28;19948;-77
2021/03/19 10:14:56;;;;;;;;;;;5.00;99.90;;;;;;5063935;28;19908;-76
2021/03/19 10:17:33;;;;;;;;;;;5.20;99.90;;;;;;5067998;28;19912;-77
2021/03/19 10:19:58;;;;;;;;;;;5.50;99.90;;;;;;5064887;28;20347;-77
2021/03/19 10:22:27;;;;;;;;;;;5.40;99.90;;;;;;5064662;28;19964;-80
2021/03/19 10:24:53;;;;;;;;;;;5.50;99.90;;;;;;5070472;28;19904;-80
2021/03/19 10:27:20;;;;;;;;;;;5.60;99.90;;;;;;5055658;28;19905;-78
2021/03/19 10:29:47;;;;;;;;;;;5.70;99.90;;;;;;5054659;28;19904;-78
2021/03/19 10:32:14;;;;;;;;;;;5.70;99.90;;;;;;5055837;28;20330;-77
2021/03/19 10:34:48;;;;;;;;;;;5.80;99.90;;;;;;5055806;28;19950;-77
2021/03/19 10:37:24;;;;;;;;;;;6.50;99.90;;;;;;5054625;28;19987;-78
2021/03/19 10:39:53;;;;;;;;;;;6.30;99.90;;;;;;5054259;28;19905;-78
2021/03/19 10:42:24;;;;;;;;;;;6.20;99.90;;;;;;5054816;28;19995;-78
2021/03/19 10:45:08;;;;;;;;;;;6.20;99.90;;;;;;5054620;28;19950;-77
2021/03/19 10:47:44;;;;;;;;;;;6.20;99.90;;;;;;5055482;28;20326;-78
2021/03/19 10:50:39;;;;;;;;;;;6.30;99.90;;;;;;5054234;28;19943;-80
2021/03/19 10:53:16;;;;;;;;;;;6.30;99.90;;;;;;5042293;28;20348;-80
2021/03/19 10:55:43;;;;;;;;;;;6.20;99.90;;;;;;5059817;28;19912;-78
2021/03/19 10:58:30;;;;;;;;;;;6.40;99.90;;;;;;5062136;28;19905;-79
2021/03/19 11:00:55;;;;;;;;;;;6.40;99.90;;;;;;5074236;28;19995;-77
2021/03/19 11:03:39;;;;;;;;;;;6.30;99.90;;;;;;5074647;28;19970;-77
2021/03/19 11:06:07;;;;;;;;;;;6.50;99.90;;;;;;5060855;28;20002;-80
2021/03/19 11:08:33;;;;;;;;;;;7.10;99.90;;;;;;5064871;28;19909;-79
2021/03/19 11:10:59;;;;;;;;;;;7.70;99.90;;;;;;5063213;28;19912;-79
2021/03/19 11:13:35;;;;;;;5.35;3.15;;;8.90;99.90;;;;;;5066055;28;19908;-76
2021/03/19 11:16:03;;;;;;;;;;;10.10;99.90;;;;;;5064561;28;20012;-78
2021/03/19 11:18:35;;;;;;;;;;;9.60;99.90;;;;;;5065322;28;24056;-79
2021/03/19 11:21:00;;;;;;;;;;;9.70;99.90;;;;;;5061642;28;19904;-77
2021/03/19 11:23:27;;;;;;;;;;;9.90;99.90;;;;;;5056094;28;19911;-77
2021/03/19 11:25:55;;;;;;;5.10;3.20;;;9.50;99.90;;;;;;5065596;28;20403;-77
2021/03/19 11:28:24;;;;;;;;;;;9.00;99.90;;;;;;5058911;28;19905;-76
2021/03/19 11:30:50;;;;;;;6.18;3.03;;;8.00;99.90;;;;;;5062592;28;20078;-76
2021/03/19 11:33:19;;;;;;;5.60;2.90;;;7.10;99.90;;;;;;5059341;28;20036;-78
2021/03/19 11:36:13;;;;;;;5.82;3.17;;;6.80;99.90;;;;;;5058674;28;20033;-77
2021/03/19 11:38:41;;;;;;;5.18;3.05;;;7.10;99.90;;;;;;5058983;28;20074;-76
2021/03/19 11:41:28;;;;;;;6.38;3.42;;;7.90;99.90;;;;;;5061825;28;20079;-76
2021/03/19 11:43:54;;;;;;;3.85;1.70;;;8.30;99.90;;;;;;5062267;28;20112;-78
2021/03/19 11:46:20;;;;;;;;;;;7.40;99.90;;;;;;5061344;28;20396;-79
2021/03/19 11:48:47;;;;;;;4.38;2.67;;;7.00;99.90;;;;;;5066376;28;19912;-78
2021/03/19 11:51:36;;;;;;;;;;;6.80;99.90;;;;;;5062231;28;20032;-77
2021/03/19 11:54:05;;;;;;;;;;;6.80;99.90;;;;;;5062926;28;19919;-80
2021/03/19 11:56:32;;;;;;;;;;;6.60;99.90;;;;;;5063950;28;19909;-80
2021/03/19 11:58:58;;;;;;;;;;;6.40;99.90;;;;;;5066158;28;19912;-78
2021/03/19 12:01:23;;;;;;;;;;;6.80;99.90;;;;;;5061809;28;19905;-77
2021/03/19 12:03:52;;;;;;;3.33;1.73;;;7.30;99.90;;;;;;5071132;28;19992;-78
2021/03/19 12:06:24;;;;;;;6.05;2.00;;;7.20;99.90;;;;;;5074795;28;20036;-77
2021/03/19 12:08:50;;;;;;;6.18;2.75;;;7.30;99.90;;;;;;5074085;28;20020;-79
2021/03/19 12:11:35;;;;;;;3.97;2.33;;;7.40;99.90;;;;;;5073270;28;20028;-81
2021/03/19 12:14:02;;;;;;;4.20;2.20;;;7.10;99.90;;;;;;5058454;28;20074;-79
2021/03/19 12:16:27;;;;;;;4.63;2.70;;;7.00;99.90;;;;;;5056485;28;20025;-77
2021/03/19 12:18:53;;;;;;;3.83;2.40;;;7.30;99.90;;;;;;5055071;28;20484;-78
2021/03/19 12:21:20;;;;;;;5.10;2.38;;;7.70;99.90;;;;;;5053282;28;20083;-78
2021/03/19 12:23:45;;;;;;;4.45;2.17;;;7.80;99.90;;;;;;5051990;28;20050;-79
2021/03/19 12:26:11;;;;;;;3.25;1.83;;;8.00;99.90;;;;;;5054397;28;20029;-77
2021/03/19 12:28:36;;;;;;;4.03;2.38;;;8.40;99.90;;;;;;5057170;28;20028;-78
2021/03/19 12:31:03;;;;;;;3.40;1.90;;;8.20;99.90;;;;;;5067552;28;20487;-77
2021/03/19 12:33:35;;;;;;;6.22;3.20;;;7.70;99.90;;;;;;5054895;28;20037;-79
2021/03/19 12:36:02;;;;;;;5.63;2.42;;;7.60;99.90;;;;;;5053203;28;20045;-77
2021/03/19 12:38:29;;;;;;;5.65;2.97;;;7.60;99.90;;;;;;5054185;28;20234;-78
2021/03/19 12:40:57;;;;;;;4.75;2.67;;;8.20;99.90;;;;;;5053501;28;20071;-77
2021/03/19 12:43:23;;;;;;;;;;;9.30;99.90;;;;;;5054077;28;20017;-79
2021/03/19 12:45:49;;;;;;;;;;;9.00;99.90;;;;;;5057680;28;19915;-78
2021/03/19 12:48:15;;;;;;;;;;;8.00;99.90;;;;;;5063310;28;19911;-78
2021/03/19 12:50:41;;;;;;;;;;;7.30;99.90;;;;;;5072665;28;19991;-78
2021/03/19 12:53:10;;;;;;;;;;;6.60;99.90;;;;;;5071958;28;20290;-76
2021/03/19 12:55:35;;;;;;;;;;;6.20;99.90;;;;;;5070543;28;20254;-78
2021/03/19 12:58:01;;;;;;;;;;;6.40;99.90;;;;;;5072867;28;19913;-81
2021/03/19 13:00:28;;;;;;;;;;;6.60;99.90;;;;;;5070811;28;20272;-77
2021/03/19 13:02:53;;;;;;;;;;;6.80;99.90;;;;;;5070670;28;19931;-78
2021/03/19 13:05:21;;;;;;;;;;;7.10;99.90;;;;;;5072229;28;20416;-77
2021/03/19 13:07:46;;;;;;;;;;;7.30;99.90;;;;;;5065805;28;20287;-78
2021/03/19 13:10:12;;;;;;;;;;;7.60;99.90;;;;;;5072125;28;19913;-78
2021/03/19 13:12:37;;;;;;;;;;;7.70;99.90;;;;;;5073677;28;19909;-79
2021/03/19 13:15:07;;;;;;;;;;;7.20;99.90;;;;;;5073858;28;19908;-79
2021/03/19 13:17:32;;;;;;;5.10;2.95;;;6.80;99.90;;;;;;5074365;28;19952;-79
2021/03/19 13:19:58;;;;;;;5.82;2.30;;;6.80;99.90;;;;;;5074573;28;20024;-79
2021/03/19 13:22:24;;;;;;;3.40;2.15;;;7.40;99.90;;;;;;5074585;28;20138;-77
2021/03/19 13:24:50;;;;;;;4.47;2.63;;;7.50;99.90;;;;;;5071286;28;20475;-77
2021/03/19 13:27:15;;;;;;;5.32;2.38;;;7.60;99.90;;;;;;5072420;28;20024;-79
2021/03/19 13:29:41;;;;;;;;;;;7.40;99.90;;;;;;5074649;28;20025;-79
2021/03/19 13:32:08;;;;;;;;;;;7.50;99.90;;;;;;5061389;28;19913;-79
2021/03/19 13:34:33;;;;;;;;;;;7.90;99.90;;;;;;5053634;28;19996;-78
2021/03/19 13:36:59;;;;;;;;;;;8.50;99.90;;;;;;5052189;28;19978;-77
2021/03/19 13:39:26;;;;;;;;;;;8.60;99.90;;;;;;5052641;28;19905;-79
2021/03/19 13:41:51;;;;;;;;;;;8.00;99.90;;;;;;5069991;28;19915;-77
2021/03/19 13:44:17;;;;;;;;;;;7.30;99.90;;;;;;5072479;28;19930;-79
2021/03/19 13:46:42;;;;;;;;;;;7.00;99.90;;;;;;5069627;28;20004;-78
2021/03/19 13:49:08;;;;;;;;;;;7.00;99.90;;;;;;5052509;28;19948;-78
2021/03/19 13:51:33;;;;;;;;;;;7.20;99.90;;;;;;5056057;28;19909;-79
2021/03/19 13:53:59;;;;;;;;;;;7.20;99.90;;;;;;5052512;28;19911;-80
2021/03/19 13:56:25;;;;;;;;;;;7.30;99.90;;;;;;5053345;28;20253;-81
2021/03/19 13:58:52;;;;;;;;;;;7.60;99.90;;;;;;5053029;28;20003;-80
2021/03/19 14:01:17;;;;;;;;;;;7.30;99.90;;;;;;5053723;28;19905;-77
2021/03/19 14:03:43;;;;;;;;;;;7.90;99.90;;;;;;5053392;28;19912;-80
2021/03/19 14:06:08;;;;;;;;;;;7.40;99.90;;;;;;5055425;28;19917;-79
2021/03/19 14:08:36;;;;;;;;;;;6.70;99.90;;;;;;5063350;28;19992;-81
2021/03/19 14:11:03;;;;;;;;;;;6.70;99.90;;;;;;5053278;28;19912;-79
2021/03/19 14:13:28;;;;;;;;;;;6.50;99.90;;;;;;5054093;28;19905;-79
2021/03/19 14:15:55;;;;;;;;;;;6.60;99.90;;;;;;5056440;28;20393;-79
2021/03/19 14:18:21;;;;;;;;;;;6.90;99.90;;;;;;5057112;28;19905;-77
2021/03/19 14:20:49;;;;;;;;;;;7.00;99.90;;;;;;5055664;28;20375;-77
2021/03/19 14:23:15;;;;;;;;;;;7.00;99.90;;;;;;5056707;28;19905;-80
2021/03/19 14:25:41;;;;;;;2.03;1.33;;;7.00;99.90;;;;;;5057322;28;19911;-78
2021/03/19 14:28:08;;;;;;;3.05;1.30;;;6.60;99.90;;;;;;5056982;28;20021;-78
2021/03/19 14:30:36;;;;;;;;;;;6.60;99.90;;;;;;5057180;28;20443;-79